Falfurrias, TX

5:08 AM CST on November 21, 2019 (GMT -0600)
Falfurrias

Weather History for KBKS - August, 2019

Change the Weather History Date:

Sunday, August 4, 2019

  Actual Average (WUND) Record (WUND)
Temperature  
Mean Temperature 90 °F -  
Max Temperature 102 °F - - (-1)
Min Temperature 79 °F - - (-1)
Cooling Degree Days 25    
Growing Degree Days 40 (Base 50)    
Moisture  
Dew Point 72 °F    
Average Humidity 61    
Maximum Humidity 85    
Minimum Humidity 32    
Precipitation  
Precipitation 0.00 in - - ()
Sea Level Pressure  
Sea Level Pressure 29.90 in    
Wind  
Wind Speed 6 mph ()    
Max Wind Speed 21 mph    
Max Gust Speed 26 mph    
Visibility 10.0 miles    
Events      
Averages and records for this station are not official NWS values.
T = Trace of Precipitation, MM = Missing Value Source: Averaged Metar Reports

Daily Weather History Graph

Daily Weather History Graph

Search for Another Location

Airport or City:

Astronomy

Aug. 04, 2019 Rise Set
Actual Time 6:57 AM CDT 8:18 PM CDT
Civil Twilight 6:32 AM CDT 8:43 PM CDT
Nautical Twilight 6:03 AM CDT 9:13 PM CDT
Astronomical Twilight 5:32 AM CDT 9:44 PM CDT
Moon 10:46 AM CDT (8/4) 11:21 PM CDT (8/4)
Length of Visible Light 14h 10m
Length of Day
13h 21m
Waxing Crescent, 18% of the Moon is Illuminated
Aug 4
Waxing Crescent
Aug 7
First Quarter
Aug 15
Full
Aug 23
Last Quarter
Aug 30
New

Hourly Weather History & Observations

Time (CDT) Temp. Heat Index Dew Point Humidity Pressure Visibility Wind Dir Wind Speed Gust Speed Precip Events Conditions
12:15 AM 82.8 °F 88.4 °F 73.0 °F 72% 29.92 in 10.0 mi ESE 3.5 mph - N/A   Clear
12:35 AM 82.0 °F 87.4 °F 72.9 °F 74% 29.92 in 10.0 mi ESE 3.5 mph - N/A   Clear
12:55 AM 81.0 °F 85.6 °F 72.7 °F 76% 29.92 in 10.0 mi East 3.5 mph - N/A   Clear
1:15 AM 80.2 °F 84.5 °F 72.7 °F 78% 29.92 in 10.0 mi ESE 3.5 mph - N/A   Clear
1:35 AM 80.6 °F 85.0 °F 72.9 °F 77% 29.92 in 10.0 mi SE 3.5 mph - N/A   Clear
1:55 AM 82.2 °F 88.0 °F 73.8 °F 75% 29.91 in 10.0 mi SSE 5.8 mph - N/A   Clear
2:15 AM 82.6 °F 89.1 °F 74.3 °F 76% 29.92 in 10.0 mi SE 5.8 mph - N/A   Clear
2:35 AM 82.6 °F 89.1 °F 74.3 °F 76% 29.91 in 10.0 mi SSE 5.8 mph - N/A   Clear
2:55 AM 82.4 °F 88.4 °F 73.8 °F 75% 29.91 in 10.0 mi SSE 6.9 mph - N/A   Clear
3:15 AM 82.4 °F 88.4 °F 73.8 °F 75% 29.91 in 10.0 mi SSE 5.8 mph - N/A   Clear
3:35 AM 82.0 °F 87.9 °F 73.8 °F 76% 29.91 in 10.0 mi SE 5.8 mph - N/A   Clear
3:55 AM 81.9 °F 87.5 °F 73.8 °F 76% 29.91 in 10.0 mi SSE 5.8 mph - N/A   Clear
4:15 AM 81.5 °F 86.9 °F 73.8 °F 77% 29.91 in 10.0 mi SSE 4.6 mph - N/A   Clear
4:35 AM 81.5 °F 87.2 °F 73.9 °F 78% 29.90 in 10.0 mi SSE 5.8 mph - N/A   Scattered Clouds
4:55 AM 80.8 °F 85.9 °F 73.9 °F 80% 29.90 in 10.0 mi SSE 3.5 mph - N/A   Scattered Clouds
5:15 AM 80.6 °F 85.5 °F 73.9 °F 80% 29.90 in 10.0 mi SSE 4.6 mph - N/A   Clear
5:35 AM 80.2 °F 84.9 °F 73.9 °F 81% 29.91 in 10.0 mi SE 3.5 mph - N/A   Clear
5:55 AM 80.2 °F 85.0 °F 74.3 °F 82% 29.91 in 10.0 mi Calm Calm - N/A   Clear
6:15 AM 79.7 °F - 74.3 °F 83% 29.91 in 10.0 mi SSE 3.5 mph - N/A   Clear
6:35 AM 79.7 °F - 74.5 °F 84% 29.92 in 10.0 mi Calm Calm - N/A   Scattered Clouds
6:55 AM 79.3 °F - 74.5 °F 85% 29.92 in 10.0 mi SE 3.5 mph - N/A   Scattered Clouds
7:15 AM 79.7 °F - 74.8 °F 85% 29.93 in 10.0 mi SE 3.5 mph - N/A   Clear
7:35 AM 80.2 °F 85.5 °F 75.2 °F 85% 29.93 in 10.0 mi SE 4.6 mph - N/A   Clear
7:55 AM 81.7 °F 88.0 °F 74.8 °F 80% 29.93 in 10.0 mi SSE 4.6 mph - N/A   Clear
8:15 AM 82.2 °F 88.8 °F 74.7 °F 78% 29.94 in 10.0 mi SSE 4.6 mph - N/A   Clear
8:35 AM 83.8 °F 91.4 °F 74.8 °F 74% 29.95 in 10.0 mi SSE 5.8 mph - N/A   Clear
8:55 AM 85.5 °F 94.2 °F 75.2 °F 71% 29.95 in 10.0 mi SSE 5.8 mph - N/A   Clear
9:15 AM 85.8 °F 94.6 °F 75.2 °F 70% 29.96 in 10.0 mi SSE 5.8 mph - N/A   Clear
9:35 AM 87.3 °F 96.3 °F 74.8 °F 66% 29.95 in 10.0 mi SSE 8.1 mph - N/A   Scattered Clouds
9:55 AM 88.5 °F 96.8 °F 73.8 °F 61% 29.95 in 10.0 mi SSW 8.1 mph - N/A   Scattered Clouds
10:15 AM 90.0 °F 97.9 °F 72.7 °F 57% 29.95 in 10.0 mi South 6.9 mph - N/A   Clear
10:35 AM 90.7 °F 97.9 °F 72.0 °F 54% 29.94 in 10.0 mi SSE 9.2 mph - N/A   Clear
10:55 AM 91.4 °F 98.4 °F 71.4 °F 52% 29.94 in 10.0 mi SSE 8.1 mph - N/A   Clear
11:15 AM 92.3 °F 99.7 °F 71.6 °F 51% 29.94 in 10.0 mi South 8.1 mph - N/A   Clear
11:35 AM 94.3 °F 100.4 °F 69.8 °F 45% 29.94 in 10.0 mi South 9.2 mph - N/A   Scattered Clouds
11:55 AM 95.0 °F 100.7 °F 69.1 °F 43% 29.93 in 10.0 mi SE 5.8 mph - N/A   Scattered Clouds
12:15 PM 94.5 °F 100.2 °F 69.3 °F 44% 29.93 in 10.0 mi Calm Calm - N/A   Scattered Clouds
12:35 PM 96.8 °F 102.5 °F 68.9 °F 40% 29.93 in 10.0 mi SE 6.9 mph - N/A   Scattered Clouds
1:15 PM 99.1 °F 104.5 °F 68.2 °F 36% 29.91 in 10.0 mi East 11.5 mph - N/A   Scattered Clouds
1:35 PM 98.1 °F 102.4 °F 66.9 °F 36% 29.90 in 10.0 mi SSW 3.5 mph 16.1 mph N/A   Clear
1:55 PM 99.3 °F 102.9 °F 65.3 °F 33% 29.90 in 10.0 mi ESE 5.8 mph - N/A   Scattered Clouds
2:15 PM 100.2 °F 103.9 °F 65.5 °F 32% 29.89 in 10.0 mi East 4.6 mph 16.1 mph N/A   Clear
2:35 PM 100.4 °F 104.3 °F 65.5 °F 32% 29.88 in 10.0 mi ESE 9.2 mph 16.1 mph N/A   Scattered Clouds
2:55 PM 100.2 °F 103.9 °F 65.3 °F 32% 29.88 in 10.0 mi SE 8.1 mph - N/A   Mostly Cloudy
3:15 PM 100.4 °F 104.9 °F 66.2 °F 33% 29.87 in 10.0 mi ESE 10.4 mph - N/A   Mostly Cloudy
3:35 PM 100.6 °F 104.6 °F 65.5 °F 32% 29.86 in 10.0 mi Calm Calm - N/A   Scattered Clouds
3:55 PM 99.9 °F 103.3 °F 65.3 °F 32% 29.86 in 10.0 mi SSE 4.6 mph 9.2 mph N/A   Mostly Cloudy
4:15 PM 101.7 °F 106.6 °F 66.4 °F 32% 29.85 in 10.0 mi East 20.7 mph 26.5 mph N/A   Mostly Cloudy
4:35 PM 96.8 °F 105.1 °F 71.8 °F 44% 29.85 in 10.0 mi ESE 15.0 mph 20.7 mph N/A   Mostly Cloudy
5:15 PM 98.2 °F 105.4 °F 70.2 °F 40% 29.85 in 10.0 mi ESE 12.7 mph 17.3 mph N/A   Clear
5:35 PM 98.1 °F 105.0 °F 70.2 °F 40% 29.85 in 10.0 mi East 13.8 mph - N/A   Clear
5:55 PM 98.2 °F 106.9 °F 71.6 °F 42% 29.85 in 10.0 mi ESE 12.7 mph 17.3 mph N/A   Clear
6:15 PM 97.3 °F 105.6 °F 71.6 °F 43% 29.85 in 10.0 mi ESE 13.8 mph - N/A   Clear
6:35 PM 96.8 °F 105.1 °F 71.6 °F 44% 29.85 in 10.0 mi East 15.0 mph 18.4 mph N/A   Clear
6:55 PM 95.5 °F 103.0 °F 70.9 °F 45% 29.84 in 10.0 mi ESE 12.7 mph - N/A   Clear
7:15 PM 94.5 °F 101.4 °F 70.7 °F 46% 29.85 in 10.0 mi ESE 13.8 mph 18.4 mph N/A   Clear
7:35 PM 92.7 °F 99.4 °F 70.7 °F 49% 29.85 in 10.0 mi ESE 11.5 mph 18.4 mph N/A   Clear
7:55 PM 91.8 °F 98.1 °F 70.7 °F 50% 29.86 in 10.0 mi East 9.2 mph 16.1 mph N/A   Clear
8:15 PM 90.3 °F 97.2 °F 71.6 °F 54% 29.86 in 10.0 mi ESE 12.7 mph - N/A   Clear
8:35 PM 89.6 °F 96.6 °F 72.0 °F 56% 29.87 in 10.0 mi ESE 10.4 mph - N/A   Clear
8:55 PM 88.7 °F 95.2 °F 71.8 °F 57% 29.88 in 10.0 mi ESE 8.1 mph - N/A   Clear
9:15 PM 88.0 °F 94.7 °F 72.1 °F 59% 29.88 in 10.0 mi ESE 10.4 mph - N/A   Clear
9:35 PM 87.3 °F 94.5 °F 73.0 °F 62% 29.88 in 10.0 mi ESE 9.2 mph - N/A   Clear
9:55 PM 86.5 °F 94.6 °F 73.8 °F 66% 29.89 in 10.0 mi SE 6.9 mph - N/A   Clear
10:15 PM 86.0 °F 94.2 °F 74.3 °F 68% 29.90 in 10.0 mi ESE 6.9 mph - N/A   Clear
10:35 PM 85.6 °F 93.8 °F 74.3 °F 69% 29.91 in 10.0 mi SE 5.8 mph - N/A   Clear
10:55 PM 85.3 °F 93.4 °F 74.7 °F 70% 29.91 in 10.0 mi ESE 6.9 mph - N/A   Clear
11:15 PM 85.1 °F 93.3 °F 74.8 °F 71% 29.92 in 10.0 mi SE 6.9 mph - N/A   Clear
11:35 PM 84.6 °F 92.4 °F 74.7 °F 72% 29.92 in 10.0 mi SE 8.1 mph - N/A   Clear
11:55 PM 84.4 °F 92.4 °F 74.8 °F 73% 29.93 in 10.0 mi SE 6.9 mph - N/A   Clear